Bone Gap, Illinois
Current Conditions -  °F | °C
As of 1:15 PM on Friday 21 Nov 2014 (Local Time) from KAJG Reporting Station
Clear Clear  
Wind Chill: 36°   Ceiling: Unl
Heat Index: 41°   Visibility: 10mi
Dew Point:   Wind: 7mph
Humidity: 26%   Direction: 150°SSE
Pressure: 30.42"   Gusts: NA
Location:  38.45°N, 88°W
Report Text: KAJG 211915Z AUTO 15006KT 10SM CLR 05/M13 A3042 RMK AO2
Loading
Personal Weather Stations






























Interactive Weather Map New forecast layout! Learn more

10-Day Weather Forecast

Advertisements
Track Severe Weather on mobile